Latest Areodrome Forecast (TAF)

TAF VMMC 201100Z 2012/2118 20008KT 9000 FEW015 SCT030 TEMPO 2012/2015 VRB15G25KT 3500 TSRA FEW010 SCT020CB TEMPO 2102/2106 VRB15G25KT 3500 TSRA FEW010 SCT020CB=

Decoded TAF in plain language
Contents of Report Code Information
Report Type TAF Aerodrome Forecasts
Location VMMC Macao, China
Issuing Time 201100Z 20/07/2019 11:00 UTC
Period of Validity of Forecast 2012/2118 Between 20th 12:00 UTC and 21st 18:00 UTC
Surface Wind Direction and Speed 20008KT mean direction 200 degrees, speed 8 knots
Visibility 9000 9 kilometres
Weather    
Cloud FEW015 SCT030 amount 1-2 oktas, base 1500 feet;
amount 3-4 oktas, base 3000 feet
Expected Significant ChangesTEMPO 2012/2015 VRB15G25KT 3500 TSRA FEW010 SCT020CBtemporarily between 20th 12:00 UTC and 20th 15:00 UTC
wind: variable direction, speed 15 knots; gust 25 knots
visibility: 3500 metres
weather: rain with thunderstorm
cloud: amount 1-2 oktas, base 1000 feet; amount 3-4 oktas cumulonimbus, base 2000 feet
 TEMPO 2102/2106 VRB15G25KT 3500 TSRA FEW010 SCT020CBtemporarily between 21st 02:00 UTC and 21st 06:00 UTC
wind: variable direction, speed 15 knots; gust 25 knots
visibility: 3500 metres
weather: rain with thunderstorm
cloud: amount 1-2 oktas, base 1000 feet; amount 3-4 oktas cumulonimbus, base 2000 feet

OTHER INTERNATIONAL AIRPORTS:
Weather Forecast (TAF)   Weather Report (METAR)